Quick Links (Output Below):   Max & Min Temps   /   Climate Reports   /   Zone Forecasts
River Forecasts   /   Forestry Forecasts   /   Aviation Forecasts   /   Radars   /   Features

Terminal Aerodrome Forecast (Fayetteville)

Pick a Site:
Arkadelphia | El Dorado | Fayetteville | Fort Smith | Harrison | Highfill | Hot Springs | Jonesboro
Little Rock | Monticello | Mountain Home | Pine Bluff | Texarkana
 Forecast 

KFYV 281735Z 2818/2918 34007KT P6SM SCT250
     FM290200 00000KT P6SM SCT250=


 Latest METARs (Observations) 
How to Decode METARs
22Z KFYV 282153Z 33014G17KT 10SM CLR 29/15 A3014 RMK AO2 SLP193
         T02890150
         
21Z KFYV 282053Z 32013G20KT 10SM CLR 29/14 A3016 RMK AO2 SLP199
         T02890139 56013
         
20Z KFYV 281953Z 35011G16KT 10SM CLR 29/15 A3017 RMK AO2 SLP203
         T02890150
         
19Z KFYV 281853Z 36005KT 10SM CLR 28/14 A3018 RMK AO2 SLP208
         T02830144
         
18Z KFYV 281753Z 31007KT 10SM CLR 27/14 A3020 RMK AO2 SLP213 T02720139
         10272 20161 58007
         
17Z KFYV 281653Z VRB04KT 10SM CLR 26/14 A3021 RMK AO2 SLP218
         T02610144
         
16Z KFYV 281553Z VRB03KT 10SM CLR 25/14 A3022 RMK AO2 SLP220
         T02500144
         
15Z KFYV 281453Z 07006KT 10SM CLR 23/14 A3022 RMK AO2 SLP220 T02280139
         53014
         
14Z KFYV 281353Z 03003KT 10SM CLR 22/14 A3019 RMK AO2 SLP211
         T02170144
         
13Z KFYV 281253Z 00000KT 10SM CLR 20/17 A3019 RMK AO2 SLP209
         T02000172
         
***** Today's Observations (Above) *****


Back to Main Page
http://www.srh.noaa.gov/lzk/qfcst.php

USA.gov is the U.S. government's official web portal to all federal, state and local government web resources and services.